createdAt,value
2023-02-14T00:02:25.822Z,76.74
2023-02-14T00:04:57.389Z,76.88
2023-02-14T00:07:25.828Z,76.81
2023-02-14T00:09:55.015Z,76.90
2023-02-14T00:12:23.727Z,76.69
2023-02-14T00:15:09.600Z,76.62
2023-02-14T00:17:38.549Z,76.81
2023-02-14T00:20:09.374Z,76.42
2023-02-14T00:22:39.230Z,76.83
2023-02-14T00:25:08.165Z,76.84
2023-02-14T00:27:36.898Z,77.00
2023-02-14T00:30:08.036Z,76.94
2023-02-14T00:32:39.663Z,76.83
2023-02-14T00:35:10.883Z,77.05
2023-02-14T00:37:42.540Z,77.21
2023-02-14T00:40:11.335Z,77.17
2023-02-14T00:42:42.280Z,77.18
2023-02-14T00:45:11.017Z,77.29
2023-02-14T00:47:40.182Z,77.28
2023-02-14T00:50:10.585Z,76.98
2023-02-14T00:52:40.516Z,77.19
2023-02-14T00:55:09.173Z,77.22
2023-02-14T00:57:37.921Z,76.94
2023-02-14T01:00:08.572Z,77.01
2023-02-14T01:02:38.267Z,77.01
2023-02-14T01:05:07.347Z,77.17
2023-02-14T01:07:39.362Z,77.65
2023-02-14T01:10:08.539Z,77.75
2023-02-14T01:12:37.424Z,77.71
2023-02-14T01:15:06.222Z,77.87
2023-02-14T01:17:35.378Z,77.64
2023-02-14T01:20:03.765Z,77.81
2023-02-14T01:22:37.470Z,77.92
2023-02-14T01:25:08.560Z,77.94
2023-02-14T01:27:37.018Z,77.83
2023-02-14T01:30:07.096Z,77.86
2023-02-14T01:32:36.562Z,77.81
2023-02-14T01:35:07.675Z,77.79
2023-02-14T01:37:36.520Z,77.96
2023-02-14T01:40:08.877Z,77.87
2023-02-14T01:42:38.169Z,78.01
2023-02-14T01:45:15.869Z,78.02
2023-02-14T01:47:47.695Z,77.89
2023-02-14T01:50:23.147Z,78.05
2023-02-14T01:52:56.094Z,77.97
2023-02-14T01:55:30.310Z,77.84
2023-02-14T01:58:03.318Z,77.75
2023-02-14T02:00:49.289Z,77.81
2023-02-14T02:03:20.860Z,77.81
2023-02-14T02:05:53.479Z,78.00
2023-02-14T02:08:24.054Z,77.88
2023-02-14T02:10:53.712Z,78.02
2023-02-14T02:13:23.534Z,77.70
2023-02-14T02:16:23.316Z,77.97
2023-02-14T02:19:05.710Z,77.83
2023-02-14T02:22:00.181Z,77.98
2023-02-14T02:24:34.984Z,77.64
2023-02-14T02:27:26.168Z,77.84
2023-02-14T02:30:42.749Z,77.82
2023-02-14T02:33:56.202Z,77.77
2023-02-14T02:36:46.742Z,77.91
2023-02-14T02:39:30.650Z,77.68
2023-02-14T02:42:07.819Z,77.71
2023-02-14T02:44:45.885Z,77.71
2023-02-14T02:47:23.454Z,77.78
2023-02-14T02:50:18.212Z,77.85
2023-02-14T02:53:04.517Z,77.81
2023-02-14T02:56:02.913Z,77.73
2023-02-14T02:58:38.276Z,77.61
2023-02-14T03:01:11.321Z,77.64
2023-02-14T03:04:00.613Z,77.54
2023-02-14T03:06:31.040Z,77.27
2023-02-14T03:09:11.946Z,77.20
2023-02-14T03:11:47.674Z,77.58
2023-02-14T03:14:23.645Z,77.80
2023-02-14T03:17:04.980Z,78.13
2023-02-14T03:20:14.778Z,78.02
2023-02-14T03:22:50.612Z,77.90
2023-02-14T03:25:38.214Z,78.08
2023-02-14T03:28:15.944Z,78.18
2023-02-14T03:30:59.813Z,78.06
2023-02-14T03:33:33.103Z,77.89
2023-02-14T03:36:07.862Z,77.74
2023-02-14T03:38:42.821Z,77.70
2023-02-14T03:41:18.565Z,77.81
2023-02-14T03:43:51.020Z,77.67
2023-02-14T03:46:26.615Z,77.79
2023-02-14T03:48:58.908Z,77.87
2023-02-14T03:51:34.756Z,77.88
2023-02-14T03:54:05.893Z,77.92
2023-02-14T03:56:41.516Z,77.79
2023-02-14T03:59:15.228Z,77.68
2023-02-14T04:01:50.599Z,77.82
2023-02-14T04:04:22.221Z,77.68
2023-02-14T04:06:50.834Z,77.63
2023-02-14T04:09:20.330Z,77.56
2023-02-14T04:11:50.900Z,77.73
2023-02-14T04:14:19.751Z,77.70
2023-02-14T04:17:05.830Z,77.87
2023-02-14T04:19:35.105Z,78.16
2023-02-14T04:22:03.390Z,78.47
2023-02-14T04:24:32.663Z,78.09
2023-02-14T04:27:11.660Z,78.20
2023-02-14T04:29:45.085Z,78.28
2023-02-14T04:32:16.069Z,78.61
2023-02-14T04:34:44.735Z,78.58
2023-02-14T04:37:14.597Z,78.40
2023-02-14T04:39:43.146Z,78.47
2023-02-14T04:42:14.172Z,78.76
2023-02-14T04:44:42.798Z,78.83
2023-02-14T04:47:11.573Z,78.76
2023-02-14T04:49:40.359Z,78.62
2023-02-14T04:52:08.718Z,78.57
2023-02-14T04:54:38.477Z,78.71
2023-02-14T04:57:06.817Z,78.70
2023-02-14T04:59:37.296Z,78.45
2023-02-14T05:02:05.660Z,78.39
2023-02-14T05:04:35.078Z,78.37
2023-02-14T05:07:03.380Z,78.49
2023-02-14T05:09:32.764Z,78.75
2023-02-14T05:12:01.050Z,78.68
2023-02-14T05:14:29.959Z,78.57
2023-02-14T05:17:00.476Z,78.86
2023-02-14T05:19:28.814Z,79.00
2023-02-14T05:21:57.739Z,78.92
2023-02-14T05:24:26.124Z,78.96
2023-02-14T05:26:55.445Z,79.07
2023-02-14T05:29:24.142Z,79.07
2023-02-14T05:31:52.581Z,79.15
2023-02-14T05:34:22.791Z,79.03
2023-02-14T05:36:51.174Z,79.10
2023-02-14T05:39:20.386Z,78.79
2023-02-14T05:41:49.253Z,78.72
2023-02-14T05:44:17.488Z,78.64
2023-02-14T05:46:46.222Z,78.70
2023-02-14T05:49:14.489Z,78.70
2023-02-14T05:51:44.695Z,78.60
2023-02-14T05:54:13.986Z,78.86
2023-02-14T05:56:42.334Z,78.73
2023-02-14T05:59:11.377Z,78.92
2023-02-14T06:01:39.684Z,78.91
2023-02-14T06:04:08.922Z,78.83
2023-02-14T06:06:37.216Z,78.79
2023-02-14T06:09:07.724Z,78.46
2023-02-14T06:11:36.065Z,78.56
2023-02-14T06:14:05.594Z,78.71
2023-02-14T06:16:34.345Z,78.86
2023-02-14T06:19:03.042Z,78.90
2023-02-14T06:21:32.198Z,78.54
2023-02-14T06:24:00.522Z,78.76
2023-02-14T06:26:30.901Z,78.79
2023-02-14T06:29:00.266Z,79.11
2023-02-14T06:31:28.863Z,79.39
2023-02-14T06:33:58.068Z,79.21
2023-02-14T06:36:27.302Z,79.05
2023-02-14T06:38:55.687Z,79.03
2023-02-14T06:41:24.046Z,79.04
2023-02-14T06:43:54.170Z,79.17
2023-02-14T06:46:22.953Z,79.02
2023-02-14T06:48:51.304Z,78.87
2023-02-14T06:51:19.785Z,78.53
2023-02-14T06:53:48.583Z,78.66
2023-02-14T06:56:16.891Z,78.87
2023-02-14T06:58:45.537Z,78.80
2023-02-14T07:01:15.223Z,78.77
2023-02-14T07:03:44.226Z,78.55
2023-02-14T07:06:13.000Z,78.51
2023-02-14T07:08:42.317Z,78.83
2023-02-14T07:11:10.680Z,78.74
2023-02-14T07:13:39.041Z,78.97
2023-02-14T07:16:07.791Z,78.83
2023-02-14T07:18:38.165Z,78.87
2023-02-14T07:21:07.325Z,78.46
2023-02-14T07:23:36.057Z,78.34
2023-02-14T07:26:05.062Z,78.44
2023-02-14T07:28:34.102Z,78.17
2023-02-14T07:31:04.036Z,78.43
2023-02-14T07:33:32.585Z,78.58
2023-02-14T07:36:05.877Z,79.06
2023-02-14T07:38:34.347Z,78.97
2023-02-14T07:41:03.539Z,78.93
2023-02-14T07:43:34.388Z,78.71
2023-02-14T07:46:03.421Z,78.75
2023-02-14T07:48:34.346Z,78.36
2023-02-14T07:51:04.187Z,78.03
2023-02-14T07:53:33.418Z,78.10
2023-02-14T07:56:02.309Z,78.23
2023-02-14T07:58:30.610Z,78.63
2023-02-14T08:00:59.812Z,78.70
2023-02-14T08:03:28.372Z,78.84
2023-02-14T08:05:58.604Z,78.64
2023-02-14T08:08:30.504Z,78.54
2023-02-14T08:11:00.170Z,78.55
2023-02-14T08:13:28.661Z,78.59
2023-02-14T08:16:07.850Z,78.70
2023-02-14T08:18:40.068Z,78.44
2023-02-14T08:21:11.236Z,78.45
2023-02-14T08:23:40.984Z,78.62
2023-02-14T08:26:09.434Z,78.71
2023-02-14T08:28:38.250Z,78.84
2023-02-14T08:31:06.967Z,78.58
2023-02-14T08:33:35.735Z,78.57
2023-02-14T08:36:04.993Z,78.54
2023-02-14T08:38:33.787Z,78.21
2023-02-14T08:41:07.602Z,78.24
2023-02-14T08:43:37.148Z,78.25
2023-02-14T08:46:05.791Z,78.33
2023-02-14T08:48:39.060Z,77.99
2023-02-14T08:51:09.013Z,77.93
2023-02-14T08:53:37.961Z,77.80
2023-02-14T08:56:10.543Z,77.55
2023-02-14T08:58:40.013Z,77.52
2023-02-14T09:01:10.527Z,77.43
2023-02-14T09:03:39.211Z,77.49
2023-02-14T09:06:09.797Z,77.32
2023-02-14T09:08:40.626Z,76.97
2023-02-14T09:11:11.768Z,76.88
2023-02-14T09:13:40.602Z,76.81
2023-02-14T09:16:12.196Z,76.75
2023-02-14T09:18:41.727Z,76.59
2023-02-14T09:21:11.958Z,76.34
2023-02-14T09:23:41.127Z,76.03
2023-02-14T09:26:13.479Z,75.98
2023-02-14T09:28:42.550Z,76.49
2023-02-14T09:31:12.971Z,76.39
2023-02-14T09:33:42.372Z,76.49
2023-02-14T09:36:28.971Z,76.57
2023-02-14T09:38:57.272Z,76.22
2023-02-14T09:41:50.815Z,76.33
2023-02-14T09:44:28.783Z,76.51
2023-02-14T09:47:06.196Z,76.24
2023-02-14T09:49:41.912Z,76.22
2023-02-14T09:52:16.329Z,75.86
2023-02-14T09:54:49.994Z,75.95
2023-02-14T09:57:27.840Z,75.90
2023-02-14T10:00:02.201Z,75.83
2023-02-14T10:02:44.779Z,75.65
2023-02-14T10:05:17.056Z,75.51
2023-02-14T10:07:56.804Z,75.61
2023-02-14T10:10:31.228Z,75.37
2023-02-14T10:13:08.670Z,75.15
2023-02-14T10:15:40.993Z,74.96
2023-02-14T10:18:14.755Z,74.83
2023-02-14T10:20:45.725Z,74.63
2023-02-14T10:23:28.414Z,74.72
2023-02-14T10:26:02.365Z,74.60
2023-02-14T10:28:38.493Z,74.40
2023-02-14T10:31:20.402Z,74.13
2023-02-14T10:33:57.402Z,73.66
2023-02-14T10:36:45.212Z,73.72
2023-02-14T10:39:34.838Z,73.51
2023-02-14T10:42:12.735Z,73.97
2023-02-14T10:44:49.205Z,74.00
2023-02-14T10:47:31.121Z,73.61
2023-02-14T10:50:12.567Z,73.76
2023-02-14T10:52:47.117Z,73.57
2023-02-14T10:55:32.019Z,73.62
2023-02-14T10:58:05.066Z,73.67
2023-02-14T11:00:38.952Z,73.45
2023-02-14T11:03:10.757Z,73.36
2023-02-14T11:05:46.164Z,73.17
2023-02-14T11:08:17.152Z,72.80
2023-02-14T11:10:46.562Z,72.86
2023-02-14T11:13:37.414Z,72.94
2023-02-14T11:16:09.692Z,73.07
2023-02-14T11:18:41.717Z,72.99
2023-02-14T11:21:12.042Z,72.88
2023-02-14T11:23:43.041Z,72.56
2023-02-14T11:26:18.449Z,72.57
2023-02-14T11:28:55.073Z,72.52
2023-02-14T11:31:30.200Z,72.21
2023-02-14T11:34:00.326Z,72.31
2023-02-14T11:36:30.605Z,72.16
2023-02-14T11:39:06.853Z,71.93
2023-02-14T11:41:49.750Z,71.84
2023-02-14T11:44:23.481Z,71.92
2023-02-14T11:46:54.590Z,71.89
2023-02-14T11:49:29.586Z,71.97
2023-02-14T11:51:59.897Z,71.81
2023-02-14T11:54:33.264Z,72.02
2023-02-14T11:57:08.460Z,71.53
2023-02-14T11:59:43.349Z,71.38
2023-02-14T12:02:26.015Z,71.02
2023-02-14T12:04:57.940Z,71.34
2023-02-14T12:07:30.900Z,71.29
2023-02-14T12:10:20.742Z,71.25
2023-02-14T12:13:02.209Z,71.18
2023-02-14T12:15:37.976Z,70.98
2023-02-14T12:18:48.065Z,70.72
2023-02-14T12:21:28.520Z,70.50
2023-02-14T12:24:04.348Z,70.57
2023-02-14T12:26:36.603Z,70.40
2023-02-14T12:29:15.087Z,70.50
2023-02-14T12:31:44.607Z,70.32
2023-02-14T12:34:17.810Z,70.08
2023-02-14T12:37:11.296Z,70.13
2023-02-14T12:39:49.313Z,69.91
2023-02-14T12:42:34.781Z,70.04
2023-02-14T12:45:12.088Z,69.90
2023-02-14T12:47:49.724Z,69.77
2023-02-14T12:50:38.438Z,69.88
2023-02-14T12:53:30.448Z,69.92
2023-02-14T12:56:08.223Z,69.94
2023-02-14T12:58:45.702Z,69.83
2023-02-14T13:01:38.956Z,69.92
2023-02-14T13:04:28.353Z,69.59
2023-02-14T13:07:04.750Z,69.56
2023-02-14T13:09:42.039Z,69.86
2023-02-14T13:12:25.452Z,70.09
2023-02-14T13:15:03.135Z,70.07
2023-02-14T13:17:38.419Z,70.00
2023-02-14T13:20:25.889Z,70.01
2023-02-14T13:22:57.402Z,70.03
2023-02-14T13:25:31.765Z,70.25
2023-02-14T13:28:03.986Z,70.25
2023-02-14T13:30:34.867Z,70.42
2023-02-14T13:33:08.846Z,70.83
2023-02-14T13:35:37.982Z,70.65
2023-02-14T13:38:15.188Z,70.96
2023-02-14T13:40:47.214Z,71.09
2023-02-14T13:43:49.035Z,71.11
2023-02-14T13:46:20.972Z,71.36
2023-02-14T13:49:04.461Z,71.38
2023-02-14T13:51:48.656Z,71.65
2023-02-14T13:54:32.723Z,71.58
2023-02-14T13:57:05.425Z,71.66
2023-02-14T13:59:35.827Z,71.72
2023-02-14T14:02:32.930Z,71.81
2023-02-14T14:05:02.702Z,71.86
2023-02-14T14:07:31.352Z,72.08
2023-02-14T14:10:03.552Z,72.20
2023-02-14T14:12:39.805Z,72.14
2023-02-14T14:15:14.379Z,72.27
2023-02-14T14:17:45.998Z,71.84
2023-02-14T14:20:39.529Z,72.10
2023-02-14T14:23:31.980Z,72.28
2023-02-14T14:26:03.623Z,72.13
2023-02-14T14:28:34.067Z,71.83
2023-02-14T14:31:03.578Z,71.72
2023-02-14T14:33:33.976Z,71.64
2023-02-14T14:36:08.251Z,71.55
2023-02-14T14:38:48.006Z,71.46
2023-02-14T14:41:18.675Z,71.49
2023-02-14T14:43:48.295Z,71.57
2023-02-14T14:46:18.551Z,71.57
2023-02-14T14:48:50.092Z,71.45
2023-02-14T14:51:25.169Z,71.42
2023-02-14T14:53:57.066Z,71.40
2023-02-14T14:56:29.968Z,71.68
2023-02-14T14:58:58.974Z,71.69
2023-02-14T15:01:34.555Z,71.70
2023-02-14T15:04:13.368Z,71.39
2023-02-14T15:06:42.528Z,71.41
2023-02-14T15:09:16.656Z,71.32
2023-02-14T15:12:05.291Z,71.16
2023-02-14T15:14:36.752Z,71.56
2023-02-14T15:17:07.501Z,71.32
2023-02-14T15:19:41.721Z,71.00
2023-02-14T15:22:21.642Z,71.05
2023-02-14T15:24:51.015Z,70.95
2023-02-14T15:27:23.582Z,70.91
2023-02-14T15:29:59.004Z,70.95
2023-02-14T15:32:31.728Z,71.25
2023-02-14T15:35:02.265Z,71.12
2023-02-14T15:37:31.391Z,71.37
2023-02-14T15:40:00.874Z,71.29
2023-02-14T15:42:32.972Z,71.61
2023-02-14T15:45:18.677Z,71.88
2023-02-14T15:47:51.671Z,71.77
2023-02-14T15:50:24.248Z,71.77
2023-02-14T15:52:56.273Z,71.78
2023-02-14T15:55:28.906Z,71.77
2023-02-14T15:58:02.045Z,71.56
2023-02-14T16:00:31.704Z,71.68
2023-02-14T16:03:03.759Z,71.58
2023-02-14T16:05:32.233Z,71.74
2023-02-14T16:08:03.965Z,71.71
2023-02-14T16:10:34.502Z,71.96
2023-02-14T16:13:06.800Z,72.10
2023-02-14T16:15:36.616Z,72.12
2023-02-14T16:18:17.429Z,72.26
2023-02-14T16:20:47.029Z,72.45
2023-02-14T16:23:21.153Z,72.43
2023-02-14T16:25:50.445Z,72.32
2023-02-14T16:28:21.771Z,72.35
2023-02-14T16:30:56.414Z,72.46
2023-02-14T16:33:27.570Z,72.63
2023-02-14T16:36:02.590Z,72.81
2023-02-14T16:38:30.983Z,72.85
2023-02-14T16:40:59.799Z,73.01
2023-02-14T16:43:29.750Z,73.23
2023-02-14T16:45:59.092Z,73.37
2023-02-14T16:48:27.436Z,73.42
2023-02-14T16:50:57.226Z,73.24
2023-02-14T16:53:28.743Z,73.22
2023-02-14T16:55:58.504Z,73.37
2023-02-14T16:58:34.606Z,73.53
2023-02-14T17:01:04.512Z,73.41
2023-02-14T17:03:32.857Z,73.42
2023-02-14T17:06:03.249Z,73.56
2023-02-14T17:08:32.305Z,73.64
2023-02-14T17:11:02.836Z,73.58
2023-02-14T17:13:37.770Z,73.56
2023-02-14T17:16:10.101Z,73.77
2023-02-14T17:18:40.674Z,73.68
2023-02-14T17:21:09.533Z,73.86
2023-02-14T17:23:37.836Z,73.66
2023-02-14T17:26:07.072Z,73.93
2023-02-14T17:28:37.226Z,73.80
2023-02-14T17:31:06.004Z,73.73
2023-02-14T17:33:36.232Z,73.99
2023-02-14T17:36:06.649Z,73.96
2023-02-14T17:38:36.385Z,74.02
2023-02-14T17:41:12.733Z,73.93
2023-02-14T17:43:43.041Z,73.94
2023-02-14T17:46:12.584Z,74.09
2023-02-14T17:48:41.524Z,74.05
2023-02-14T17:51:11.805Z,74.14
2023-02-14T17:53:41.547Z,74.35
2023-02-14T17:56:12.020Z,74.37
2023-02-14T17:58:41.071Z,74.37
2023-02-14T18:01:12.742Z,74.34
2023-02-14T18:03:43.119Z,74.51
2023-02-14T18:06:12.082Z,74.40
2023-02-14T18:08:43.108Z,74.56
2023-02-14T18:11:13.989Z,74.56
2023-02-14T18:13:44.826Z,74.54
2023-02-14T18:16:16.306Z,74.70
2023-02-14T18:18:45.869Z,74.48
2023-02-14T18:21:17.508Z,74.45
2023-02-14T18:23:46.089Z,74.66
2023-02-14T18:26:16.533Z,74.78
2023-02-14T18:28:45.483Z,74.51
2023-02-14T18:31:17.108Z,74.44
2023-02-14T18:33:46.589Z,74.61
2023-02-14T18:36:16.770Z,74.64
2023-02-14T18:38:47.407Z,74.76
2023-02-14T18:41:17.755Z,75.14
2023-02-14T18:43:47.091Z,75.00
2023-02-14T18:46:19.234Z,74.76
2023-02-14T18:48:48.227Z,74.90
2023-02-14T18:51:19.580Z,74.94
2023-02-14T18:53:52.173Z,74.90
2023-02-14T18:56:23.560Z,75.01
2023-02-14T18:58:56.240Z,75.02
2023-02-14T19:01:29.212Z,74.88
2023-02-14T19:04:01.055Z,74.71
2023-02-14T19:06:32.000Z,74.78
2023-02-14T19:09:01.427Z,74.97
2023-02-14T19:11:32.690Z,75.13
2023-02-14T19:14:03.294Z,75.15
2023-02-14T19:16:37.161Z,74.96
2023-02-14T19:19:06.739Z,74.74
2023-02-14T19:21:36.712Z,75.02
2023-02-14T19:24:07.920Z,74.89
2023-02-14T19:26:40.098Z,75.04
2023-02-14T19:29:11.693Z,75.01
2023-02-14T19:31:45.152Z,75.22
2023-02-14T19:34:20.358Z,75.24
2023-02-14T19:36:50.269Z,75.32
2023-02-14T19:39:20.625Z,75.24
2023-02-14T19:41:48.958Z,75.32
2023-02-14T19:44:19.258Z,75.23
2023-02-14T19:46:48.898Z,75.23
2023-02-14T19:49:19.690Z,75.43
2023-02-14T19:51:51.144Z,75.33
2023-02-14T19:54:21.903Z,75.30
2023-02-14T19:56:50.410Z,75.21
2023-02-14T19:59:22.945Z,75.49
2023-02-14T20:01:54.117Z,75.44
2023-02-14T20:04:25.444Z,75.48
2023-02-14T20:06:54.255Z,75.71
2023-02-14T20:09:24.495Z,75.61
2023-02-14T20:11:54.702Z,75.92
2023-02-14T20:14:25.932Z,76.08
2023-02-14T20:16:57.635Z,76.20
2023-02-14T20:19:29.731Z,76.33
2023-02-14T20:21:58.461Z,76.29
2023-02-14T20:24:28.889Z,76.21
2023-02-14T20:26:58.465Z,76.17
2023-02-14T20:29:27.447Z,76.39
2023-02-14T20:32:00.394Z,76.14
2023-02-14T20:34:29.287Z,76.32
2023-02-14T20:36:59.623Z,76.44
2023-02-14T20:39:30.465Z,76.66
2023-02-14T20:41:59.924Z,76.60
2023-02-14T20:44:28.852Z,76.70
2023-02-14T20:47:00.065Z,76.91
2023-02-14T20:49:30.647Z,76.91
2023-02-14T20:52:00.124Z,77.06
2023-02-14T20:54:30.090Z,77.00
2023-02-14T20:56:59.421Z,76.98
2023-02-14T20:59:29.223Z,76.86
2023-02-14T21:02:00.222Z,76.80
2023-02-14T21:04:30.610Z,77.02
2023-02-14T21:07:00.353Z,76.82
2023-02-14T21:09:29.408Z,76.69
2023-02-14T21:11:58.398Z,76.54
2023-02-14T21:14:28.103Z,76.55
2023-02-14T21:16:56.508Z,76.90
2023-02-14T21:19:29.974Z,76.85
2023-02-14T21:21:58.925Z,76.69
2023-02-14T21:24:27.732Z,76.86
2023-02-14T21:26:56.064Z,76.83
2023-02-14T21:29:25.321Z,76.75
2023-02-14T21:31:54.173Z,77.11
2023-02-14T21:34:22.708Z,76.88
2023-02-14T21:36:56.539Z,76.67
2023-02-14T21:39:27.517Z,77.01
2023-02-14T21:41:56.388Z,76.87
2023-02-14T21:44:38.654Z,76.61
2023-02-14T21:47:08.152Z,76.74
2023-02-14T21:49:53.933Z,76.62
2023-02-14T21:52:24.650Z,76.79
2023-02-14T21:54:53.399Z,76.90
2023-02-14T21:57:21.687Z,76.96
2023-02-14T21:59:50.823Z,76.83
2023-02-14T22:02:19.142Z,76.94
2023-02-14T22:04:47.913Z,76.95
2023-02-14T22:07:16.734Z,76.50
2023-02-14T22:09:46.377Z,76.87
2023-02-14T22:12:15.365Z,76.60
2023-02-14T22:14:44.190Z,76.50
2023-02-14T22:17:13.155Z,76.75
2023-02-14T22:19:41.456Z,77.03
2023-02-14T22:22:10.722Z,77.28
2023-02-14T22:24:39.389Z,77.17
2023-02-14T22:27:09.049Z,77.21
2023-02-14T22:29:38.596Z,76.91
2023-02-14T22:32:07.039Z,76.83
2023-02-14T22:34:36.201Z,76.95
2023-02-14T22:37:05.057Z,77.14
2023-02-14T22:39:33.534Z,76.89
2023-02-14T22:42:06.730Z,77.04
2023-02-14T22:44:36.566Z,77.50
2023-02-14T22:47:04.915Z,77.51
2023-02-14T22:49:33.948Z,77.78
2023-02-14T22:52:02.231Z,77.54
2023-02-14T22:54:31.290Z,77.54
2023-02-14T22:57:00.107Z,77.67
2023-02-14T22:59:31.674Z,77.68
2023-02-14T23:02:02.300Z,77.52
2023-02-14T23:04:31.668Z,77.44
2023-02-14T23:06:59.956Z,77.39
2023-02-14T23:09:29.451Z,77.49
2023-02-14T23:11:57.809Z,77.41
2023-02-14T23:14:44.875Z,77.53
2023-02-14T23:17:34.041Z,77.35
2023-02-14T23:20:20.532Z,77.31
2023-02-14T23:22:48.942Z,77.39
2023-02-14T23:25:18.225Z,77.37
2023-02-14T23:27:47.499Z,77.25
2023-02-14T23:30:19.559Z,77.33
2023-02-14T23:32:49.666Z,77.40
2023-02-14T23:35:18.221Z,77.14
2023-02-14T23:37:47.716Z,77.14
2023-02-14T23:40:16.045Z,76.97
2023-02-14T23:42:45.194Z,77.05
2023-02-14T23:45:31.691Z,77.13
2023-02-14T23:48:05.051Z,77.20
2023-02-14T23:50:35.025Z,77.25
2023-02-14T23:53:03.386Z,77.16
2023-02-14T23:55:32.657Z,76.90
2023-02-14T23:58:01.428Z,77.04
